createdAt,value
2023-01-20T00:01:29.023Z,77.31
2023-01-20T00:03:56.511Z,77.80
2023-01-20T00:06:24.755Z,77.38
2023-01-20T00:08:52.521Z,77.44
2023-01-20T00:11:19.444Z,76.55
2023-01-20T00:13:46.015Z,76.00
2023-01-20T00:16:12.819Z,75.98
2023-01-20T00:18:40.500Z,77.35
2023-01-20T00:21:12.548Z,77.17
2023-01-20T00:23:40.530Z,77.36
2023-01-20T00:26:09.495Z,77.09
2023-01-20T00:28:36.506Z,77.49
2023-01-20T00:31:28.571Z,78.10
2023-01-20T00:33:56.800Z,77.48
2023-01-20T00:36:24.539Z,77.03
2023-01-20T00:38:51.332Z,76.39
2023-01-20T00:41:18.360Z,76.43
2023-01-20T00:43:45.421Z,77.02
2023-01-20T00:46:12.460Z,77.43
2023-01-20T00:48:38.986Z,77.90
2023-01-20T00:51:07.111Z,78.08
2023-01-20T00:53:33.814Z,77.65
2023-01-20T00:56:00.795Z,77.26
2023-01-20T00:58:27.388Z,77.79
2023-01-20T01:00:55.251Z,77.84
2023-01-20T01:03:22.224Z,77.42
2023-01-20T01:05:48.769Z,76.62
2023-01-20T01:08:15.432Z,75.82
2023-01-20T01:10:42.370Z,76.75
2023-01-20T01:13:09.671Z,76.81
2023-01-20T01:15:36.648Z,77.19
2023-01-20T01:18:03.843Z,77.30
2023-01-20T01:20:30.418Z,77.19
2023-01-20T01:22:56.998Z,76.53
2023-01-20T01:25:23.800Z,77.16
2023-01-20T01:27:50.340Z,77.48
2023-01-20T01:30:17.268Z,76.82
2023-01-20T01:32:43.929Z,76.29
2023-01-20T01:35:10.478Z,76.16
2023-01-20T01:37:37.171Z,76.46
2023-01-20T01:40:04.116Z,76.13
2023-01-20T01:42:30.683Z,76.94
2023-01-20T01:45:12.931Z,76.32
2023-01-20T01:47:48.400Z,77.19
2023-01-20T01:50:25.006Z,77.68
2023-01-20T01:52:53.984Z,77.77
2023-01-20T01:55:27.293Z,77.38
2023-01-20T01:57:54.863Z,77.57
2023-01-20T02:00:26.497Z,77.94
2023-01-20T02:02:53.833Z,77.67
2023-01-20T02:05:21.786Z,77.10
2023-01-20T02:07:49.017Z,77.57
2023-01-20T02:10:16.518Z,76.97
2023-01-20T02:12:47.312Z,76.68
2023-01-20T02:15:14.367Z,75.87
2023-01-20T02:18:02.385Z,76.08
2023-01-20T02:21:11.219Z,76.53
2023-01-20T02:23:53.115Z,77.23
2023-01-20T02:26:19.663Z,76.46
2023-01-20T02:29:13.485Z,76.36
2023-01-20T02:32:16.739Z,77.09
2023-01-20T02:34:59.131Z,77.08
2023-01-20T02:37:29.255Z,77.52
2023-01-20T02:40:20.695Z,77.33
2023-01-20T02:42:57.046Z,76.82
2023-01-20T02:45:31.895Z,76.37
2023-01-20T02:48:05.602Z,76.52
2023-01-20T02:50:40.712Z,76.92
2023-01-20T02:53:09.047Z,76.35
2023-01-20T02:55:54.969Z,76.25
2023-01-20T02:58:38.065Z,76.96
2023-01-20T03:01:12.736Z,76.99
2023-01-20T03:03:43.965Z,76.58
2023-01-20T03:06:16.376Z,76.10
2023-01-20T03:08:44.985Z,76.06
2023-01-20T03:11:11.893Z,76.67
2023-01-20T03:13:54.156Z,77.10
2023-01-20T03:16:23.542Z,76.42
2023-01-20T03:18:51.335Z,76.01
2023-01-20T03:21:19.085Z,77.13
2023-01-20T03:23:49.221Z,77.72
2023-01-20T03:26:17.693Z,77.17
2023-01-20T03:28:45.749Z,76.80
2023-01-20T03:31:21.826Z,76.18
2023-01-20T03:33:50.599Z,76.36
2023-01-20T03:36:19.466Z,77.64
2023-01-20T03:38:46.490Z,77.77
2023-01-20T03:41:46.976Z,76.72
2023-01-20T03:44:32.222Z,76.40
2023-01-20T03:47:37.288Z,76.22
2023-01-20T03:50:32.904Z,76.43
2023-01-20T03:53:27.966Z,77.04
2023-01-20T03:56:24.214Z,78.46
2023-01-20T03:58:54.098Z,77.80
2023-01-20T04:01:26.552Z,77.12
2023-01-20T04:03:54.985Z,76.49
2023-01-20T04:06:23.898Z,76.60
2023-01-20T04:09:00.987Z,76.61
2023-01-20T04:11:27.897Z,76.58
2023-01-20T04:13:55.194Z,76.51
2023-01-20T04:16:23.227Z,76.46
2023-01-20T04:18:51.412Z,76.46
2023-01-20T04:21:32.654Z,76.53
2023-01-20T04:24:07.741Z,76.65
2023-01-20T04:26:34.303Z,77.25
2023-01-20T04:29:09.327Z,77.83
2023-01-20T04:31:38.017Z,77.18
2023-01-20T04:34:05.388Z,76.55
2023-01-20T04:36:31.933Z,76.12
2023-01-20T04:38:58.550Z,76.64
2023-01-20T04:41:25.117Z,77.19
2023-01-20T04:43:51.642Z,76.97
2023-01-20T04:46:18.198Z,76.72
2023-01-20T04:48:46.260Z,77.05
2023-01-20T04:51:13.190Z,76.84
2023-01-20T04:53:39.799Z,76.54
2023-01-20T04:56:11.800Z,76.81
2023-01-20T04:58:38.783Z,77.00
2023-01-20T05:01:05.418Z,76.73
2023-01-20T05:03:31.999Z,76.54
2023-01-20T05:05:58.536Z,76.05
2023-01-20T05:08:25.103Z,75.86
2023-01-20T05:10:51.653Z,75.99
2023-01-20T05:13:18.264Z,76.22
2023-01-20T05:15:45.033Z,76.68
2023-01-20T05:18:11.609Z,77.63
2023-01-20T05:20:38.221Z,77.44
2023-01-20T05:23:04.830Z,77.18
2023-01-20T05:25:31.353Z,76.90
2023-01-20T05:27:59.451Z,76.86
2023-01-20T05:30:26.079Z,76.41
2023-01-20T05:32:52.610Z,75.86
2023-01-20T05:35:19.528Z,75.92
2023-01-20T05:37:46.058Z,76.08
2023-01-20T05:40:12.711Z,76.04
2023-01-20T05:42:39.805Z,76.32
2023-01-20T05:45:07.075Z,76.57
2023-01-20T05:47:33.583Z,76.90
2023-01-20T05:50:00.133Z,77.60
2023-01-20T05:52:26.644Z,77.57
2023-01-20T05:54:53.175Z,77.69
2023-01-20T05:57:19.838Z,77.30
2023-01-20T05:59:47.784Z,76.93
2023-01-20T06:02:18.676Z,76.12
2023-01-20T06:04:46.296Z,76.15
2023-01-20T06:07:12.833Z,76.34
2023-01-20T06:09:39.477Z,76.37
2023-01-20T06:12:06.404Z,76.58
2023-01-20T06:14:32.948Z,76.29
2023-01-20T06:16:59.523Z,76.48
2023-01-20T06:19:26.078Z,77.17
2023-01-20T06:21:53.546Z,75.94
2023-01-20T06:24:20.106Z,76.94
2023-01-20T06:26:46.649Z,76.82
2023-01-20T06:29:13.193Z,76.67
2023-01-20T06:31:39.846Z,76.29
2023-01-20T06:34:06.420Z,76.05
2023-01-20T06:36:32.959Z,77.04
2023-01-20T06:38:59.485Z,76.55
2023-01-20T06:41:26.016Z,76.96
2023-01-20T06:43:52.644Z,77.41
2023-01-20T06:46:19.250Z,76.98
2023-01-20T06:48:46.366Z,77.24
2023-01-20T06:51:16.599Z,75.97
2023-01-20T06:53:43.383Z,75.21
2023-01-20T06:56:12.233Z,74.75
2023-01-20T06:58:39.191Z,74.55
2023-01-20T07:01:12.821Z,74.99
2023-01-20T07:03:41.340Z,75.50
2023-01-20T07:06:29.796Z,75.50
2023-01-20T07:08:58.911Z,74.76
2023-01-20T07:11:26.619Z,74.25
2023-01-20T07:13:53.394Z,74.13
2023-01-20T07:16:20.438Z,73.89
2023-01-20T07:18:48.885Z,74.73
2023-01-20T07:21:15.819Z,74.77
2023-01-20T07:23:42.382Z,74.31
2023-01-20T07:26:11.772Z,73.83
2023-01-20T07:28:39.317Z,73.47
2023-01-20T07:31:08.316Z,73.33
2023-01-20T07:33:35.517Z,73.95
2023-01-20T07:36:02.612Z,74.42
2023-01-20T07:38:29.761Z,73.72
2023-01-20T07:41:02.431Z,74.52
2023-01-20T07:43:30.195Z,76.14
2023-01-20T07:46:02.281Z,75.97
2023-01-20T07:48:31.778Z,76.13
2023-01-20T07:51:05.122Z,75.38
2023-01-20T07:53:33.752Z,74.64
2023-01-20T07:56:06.969Z,73.75
2023-01-20T07:58:34.094Z,73.34
2023-01-20T08:01:12.908Z,73.30
2023-01-20T08:03:39.663Z,73.48
2023-01-20T08:06:08.925Z,73.51
2023-01-20T08:08:35.679Z,73.47
2023-01-20T08:11:03.344Z,72.61
2023-01-20T08:13:29.964Z,73.67
2023-01-20T08:16:00.153Z,73.91
2023-01-20T08:18:27.342Z,73.89
2023-01-20T08:20:54.550Z,72.80
2023-01-20T08:23:21.242Z,72.84
2023-01-20T08:25:47.805Z,72.69
2023-01-20T08:28:14.453Z,72.69
2023-01-20T08:30:41.238Z,73.02
2023-01-20T08:33:07.823Z,72.39
2023-01-20T08:35:36.360Z,72.88
2023-01-20T08:38:03.502Z,72.02
2023-01-20T08:40:30.072Z,72.96
2023-01-20T08:42:56.689Z,72.98
2023-01-20T08:45:23.863Z,71.97
2023-01-20T08:47:50.590Z,71.94
2023-01-20T08:50:17.518Z,72.11
2023-01-20T08:52:44.162Z,72.51
2023-01-20T08:55:11.932Z,72.65
2023-01-20T08:57:38.545Z,72.30
2023-01-20T09:00:09.184Z,72.53
2023-01-20T09:02:37.718Z,72.39
2023-01-20T09:05:05.102Z,71.57
2023-01-20T09:07:31.660Z,71.51
2023-01-20T09:09:58.294Z,71.70
2023-01-20T09:12:24.900Z,71.31
2023-01-20T09:14:51.461Z,71.30
2023-01-20T09:17:18.078Z,71.02
2023-01-20T09:19:44.687Z,70.63
2023-01-20T09:22:11.255Z,70.70
2023-01-20T09:24:37.800Z,70.43
2023-01-20T09:27:04.547Z,69.66
2023-01-20T09:29:31.771Z,69.32
2023-01-20T09:31:58.585Z,70.04
2023-01-20T09:34:27.809Z,69.30
2023-01-20T09:36:57.316Z,69.15
2023-01-20T09:39:42.912Z,69.50
2023-01-20T09:42:49.258Z,68.17
2023-01-20T09:45:58.941Z,68.65
2023-01-20T09:49:01.273Z,66.68
2023-01-20T09:52:30.182Z,66.73
2023-01-20T09:55:02.557Z,67.55
2023-01-20T09:57:33.282Z,67.27
2023-01-20T10:00:11.950Z,66.95
2023-01-20T10:02:41.518Z,66.17
2023-01-20T10:05:13.411Z,65.78
2023-01-20T10:07:56.549Z,65.28
2023-01-20T10:10:38.150Z,64.83
2023-01-20T10:13:20.244Z,64.33
2023-01-20T10:15:54.223Z,64.63
2023-01-20T10:18:40.760Z,65.43
2023-01-20T10:21:31.913Z,65.43
2023-01-20T10:24:04.688Z,64.70
2023-01-20T10:26:44.205Z,64.27
2023-01-20T10:29:20.165Z,64.68
2023-01-20T10:32:01.145Z,62.86
2023-01-20T10:34:37.008Z,64.15
2023-01-20T10:37:10.129Z,63.34
2023-01-20T10:39:56.085Z,63.45
2023-01-20T10:42:24.700Z,63.76
2023-01-20T10:44:52.559Z,63.55
2023-01-20T10:47:36.232Z,62.26
2023-01-20T10:50:02.765Z,62.29
2023-01-20T10:52:56.395Z,61.99
2023-01-20T10:55:47.405Z,62.35
2023-01-20T10:58:22.782Z,61.82
2023-01-20T11:00:50.615Z,61.48
2023-01-20T11:03:20.402Z,61.92
2023-01-20T11:05:48.646Z,61.51
2023-01-20T11:08:22.808Z,61.96
2023-01-20T11:10:54.353Z,62.12
2023-01-20T11:13:20.918Z,62.35
2023-01-20T11:15:50.727Z,61.44
2023-01-20T11:18:17.225Z,61.17
2023-01-20T11:20:52.714Z,60.21
2023-01-20T11:23:30.181Z,61.42
2023-01-20T11:25:58.245Z,59.59
2023-01-20T11:28:25.193Z,61.20
2023-01-20T11:30:53.917Z,60.01
2023-01-20T11:33:25.255Z,60.19
2023-01-20T11:35:59.287Z,60.71
2023-01-20T11:38:44.402Z,61.16
2023-01-20T11:41:21.332Z,60.45
2023-01-20T11:43:49.304Z,61.83
2023-01-20T11:46:19.517Z,61.49
2023-01-20T11:48:47.197Z,61.59
2023-01-20T11:51:28.187Z,62.44
2023-01-20T11:54:08.140Z,62.01
2023-01-20T11:56:46.883Z,62.42
2023-01-20T11:59:31.776Z,62.12
2023-01-20T12:02:08.388Z,62.65
2023-01-20T12:04:37.629Z,62.06
2023-01-20T12:07:46.796Z,62.19
2023-01-20T12:10:22.056Z,61.29
2023-01-20T12:12:53.218Z,61.51
2023-01-20T12:15:23.992Z,62.02
2023-01-20T12:17:58.292Z,61.49
2023-01-20T12:20:54.544Z,61.04
2023-01-20T12:23:24.883Z,60.42
2023-01-20T12:25:58.024Z,58.29
2023-01-20T12:28:42.455Z,59.00
2023-01-20T12:31:17.235Z,59.39
2023-01-20T12:33:45.495Z,59.36
2023-01-20T12:36:31.044Z,59.71
2023-01-20T12:39:25.401Z,59.86
2023-01-20T12:42:10.262Z,59.08
2023-01-20T12:44:48.981Z,59.95
2023-01-20T12:47:18.509Z,60.50
2023-01-20T12:50:03.571Z,60.93
2023-01-20T12:52:48.415Z,59.47
2023-01-20T12:55:49.005Z,59.69
2023-01-20T12:58:35.259Z,59.49
2023-01-20T13:01:20.860Z,59.28
2023-01-20T13:04:25.090Z,59.71
2023-01-20T13:07:33.474Z,59.18
2023-01-20T13:10:33.903Z,59.24
2023-01-20T13:13:15.070Z,58.86
2023-01-20T13:15:45.728Z,58.58
2023-01-20T13:18:22.027Z,57.69
2023-01-20T13:20:48.794Z,57.41
2023-01-20T13:23:18.683Z,56.88
2023-01-20T13:25:47.353Z,55.27
2023-01-20T13:28:23.351Z,54.71
2023-01-20T13:30:54.048Z,55.97
2023-01-20T13:33:41.954Z,54.75
2023-01-20T13:36:20.472Z,54.52
2023-01-20T13:38:49.541Z,55.00
2023-01-20T13:41:47.069Z,55.33
2023-01-20T13:44:35.844Z,55.73
2023-01-20T13:47:04.310Z,55.71
2023-01-20T13:49:53.619Z,56.11
2023-01-20T13:52:54.853Z,54.79
2023-01-20T13:55:30.941Z,55.91
2023-01-20T13:57:57.436Z,56.69
2023-01-20T14:00:24.040Z,57.05
2023-01-20T14:02:51.398Z,56.63
2023-01-20T14:05:28.011Z,56.26
2023-01-20T14:07:55.678Z,56.87
2023-01-20T14:10:22.277Z,57.86
2023-01-20T14:12:48.776Z,56.01
2023-01-20T14:15:28.128Z,56.95
2023-01-20T14:17:57.404Z,56.50
2023-01-20T14:20:25.296Z,57.90
2023-01-20T14:22:52.143Z,60.60
2023-01-20T14:25:27.798Z,63.43
2023-01-20T14:27:54.385Z,61.55
2023-01-20T14:30:24.104Z,63.53
2023-01-20T14:32:51.963Z,64.41
2023-01-20T14:35:28.970Z,65.63
2023-01-20T14:37:55.740Z,64.11
2023-01-20T14:40:35.781Z,65.20
2023-01-20T14:43:20.200Z,64.48
2023-01-20T14:45:49.664Z,64.70
2023-01-20T14:48:32.649Z,66.07
2023-01-20T14:51:02.619Z,65.40
2023-01-20T14:53:29.382Z,67.52
2023-01-20T14:56:07.662Z,66.09
2023-01-20T14:58:35.056Z,66.55
2023-01-20T15:01:06.633Z,66.81
2023-01-20T15:03:33.261Z,67.37
2023-01-20T15:06:01.357Z,66.70
2023-01-20T15:08:56.924Z,67.54
2023-01-20T15:11:31.200Z,67.76
2023-01-20T15:14:01.044Z,67.30
2023-01-20T15:16:27.750Z,67.74
2023-01-20T15:19:13.015Z,68.07
2023-01-20T15:21:42.220Z,67.94
2023-01-20T15:24:23.493Z,68.87
2023-01-20T15:26:52.668Z,68.97
2023-01-20T15:29:26.959Z,68.85
2023-01-20T15:31:55.787Z,68.78
2023-01-20T15:34:23.824Z,68.57
2023-01-20T15:36:51.963Z,71.19
2023-01-20T15:39:29.148Z,72.20
2023-01-20T15:41:57.253Z,71.29
2023-01-20T15:44:25.387Z,70.97
2023-01-20T15:46:54.158Z,72.65
2023-01-20T15:49:21.868Z,71.56
2023-01-20T15:51:48.477Z,71.17
2023-01-20T15:54:15.018Z,70.57
2023-01-20T15:56:42.583Z,70.80
2023-01-20T15:59:14.839Z,72.31
2023-01-20T16:01:41.587Z,71.86
2023-01-20T16:04:09.373Z,73.10
2023-01-20T16:06:37.427Z,72.20
2023-01-20T16:09:19.511Z,72.82
2023-01-20T16:11:47.514Z,72.31
2023-01-20T16:14:14.183Z,71.47
2023-01-20T16:16:41.064Z,70.70
2023-01-20T16:19:07.589Z,71.61
2023-01-20T16:21:34.111Z,71.46
2023-01-20T16:24:00.689Z,71.93
2023-01-20T16:26:28.768Z,71.17
2023-01-20T16:28:57.301Z,71.87
2023-01-20T16:31:25.605Z,71.30
2023-01-20T16:33:53.176Z,72.77
2023-01-20T16:36:21.799Z,72.32
2023-01-20T16:38:49.342Z,72.52
2023-01-20T16:41:21.414Z,72.35
2023-01-20T16:43:48.670Z,71.82
2023-01-20T16:46:21.561Z,72.41
2023-01-20T16:48:48.404Z,72.03
2023-01-20T16:51:17.669Z,70.57
2023-01-20T16:53:44.266Z,71.11
2023-01-20T16:56:16.185Z,72.48
2023-01-20T16:58:43.113Z,73.13
2023-01-20T17:01:12.693Z,72.47
2023-01-20T17:03:40.225Z,71.92
2023-01-20T17:06:18.189Z,72.30
2023-01-20T17:08:50.433Z,72.38
2023-01-20T17:11:21.220Z,72.24
2023-01-20T17:13:48.137Z,74.06
2023-01-20T17:16:14.900Z,73.95
2023-01-20T17:18:45.244Z,74.36
2023-01-20T17:21:13.677Z,74.77
2023-01-20T17:23:41.101Z,73.78
2023-01-20T17:26:08.991Z,73.98
2023-01-20T17:28:35.750Z,73.67
2023-01-20T17:31:04.182Z,73.27
2023-01-20T17:33:31.084Z,73.08
2023-01-20T17:35:59.075Z,72.45
2023-01-20T17:38:26.932Z,72.33
2023-01-20T17:40:53.485Z,72.18
2023-01-20T17:43:20.040Z,71.71
2023-01-20T17:45:46.754Z,71.63
2023-01-20T17:48:13.338Z,72.12
2023-01-20T17:50:39.977Z,72.01
2023-01-20T17:53:06.516Z,71.63
2023-01-20T17:55:33.136Z,71.14
2023-01-20T17:57:59.654Z,71.65
2023-01-20T18:00:26.324Z,71.46
2023-01-20T18:02:56.230Z,70.62
2023-01-20T18:05:22.794Z,71.72
2023-01-20T18:07:50.113Z,71.11
2023-01-20T18:10:17.547Z,72.22
2023-01-20T18:12:44.680Z,71.55
2023-01-20T18:15:11.176Z,72.90
2023-01-20T18:17:38.156Z,71.66
2023-01-20T18:20:05.372Z,72.51
2023-01-20T18:22:31.906Z,73.51
2023-01-20T18:24:58.638Z,73.11
2023-01-20T18:27:30.166Z,73.91
2023-01-20T18:29:56.789Z,74.51
2023-01-20T18:32:23.319Z,73.40
2023-01-20T18:34:49.941Z,71.24
2023-01-20T18:37:16.537Z,70.16
2023-01-20T18:39:43.896Z,70.67
2023-01-20T18:42:11.232Z,70.54
2023-01-20T18:44:37.783Z,70.80
2023-01-20T18:47:08.019Z,71.90
2023-01-20T18:49:34.689Z,71.89
2023-01-20T18:52:01.536Z,71.33
2023-01-20T18:54:32.298Z,70.95
2023-01-20T18:56:58.828Z,70.71
2023-01-20T18:59:26.038Z,70.50
2023-01-20T19:01:52.961Z,70.87
2023-01-20T19:04:19.504Z,71.05
2023-01-20T19:06:46.197Z,71.47
2023-01-20T19:09:13.368Z,73.38
2023-01-20T19:11:41.308Z,72.59
2023-01-20T19:14:11.623Z,71.95
2023-01-20T19:16:39.356Z,71.83
2023-01-20T19:19:07.056Z,71.77
2023-01-20T19:21:36.081Z,71.53
2023-01-20T19:24:05.911Z,73.38
2023-01-20T19:26:35.501Z,72.21
2023-01-20T19:29:05.657Z,71.17
2023-01-20T19:31:34.862Z,71.03
2023-01-20T19:34:01.612Z,70.87
2023-01-20T19:36:28.246Z,70.92
2023-01-20T19:38:54.824Z,71.16
2023-01-20T19:41:27.629Z,72.96
2023-01-20T19:43:57.080Z,73.29
2023-01-20T19:46:26.127Z,73.03
2023-01-20T19:48:54.381Z,73.08
2023-01-20T19:51:21.260Z,73.01
2023-01-20T19:53:50.157Z,72.76
2023-01-20T19:56:19.291Z,72.57
2023-01-20T19:58:47.308Z,72.94
2023-01-20T20:01:15.303Z,73.01
2023-01-20T20:03:42.439Z,72.20
2023-01-20T20:06:26.816Z,72.40
2023-01-20T20:08:55.802Z,72.40
2023-01-20T20:11:22.370Z,72.53
2023-01-20T20:13:49.102Z,73.62
2023-01-20T20:16:16.200Z,73.12
2023-01-20T20:18:42.952Z,72.51
2023-01-20T20:21:09.708Z,72.73
2023-01-20T20:23:36.362Z,73.65
2023-01-20T20:26:02.973Z,72.73
2023-01-20T20:28:29.743Z,72.99
2023-01-20T20:31:03.448Z,72.65
2023-01-20T20:33:31.319Z,72.26
2023-01-20T20:35:58.069Z,72.38
2023-01-20T20:38:24.723Z,72.30
2023-01-20T20:40:58.329Z,72.85
2023-01-20T20:43:25.245Z,72.37
2023-01-20T20:45:52.671Z,72.26
2023-01-20T20:48:19.672Z,72.94
2023-01-20T20:50:46.248Z,73.76
2023-01-20T20:53:12.916Z,74.18
2023-01-20T20:55:42.280Z,73.36
2023-01-20T20:58:09.494Z,73.12
2023-01-20T21:00:37.445Z,73.63
2023-01-20T21:03:07.374Z,72.38
2023-01-20T21:05:35.231Z,71.63
2023-01-20T21:08:04.661Z,71.80
2023-01-20T21:10:31.340Z,73.90
2023-01-20T21:12:58.034Z,74.54
2023-01-20T21:15:24.683Z,73.29
2023-01-20T21:17:51.324Z,72.36
2023-01-20T21:20:18.237Z,73.59
2023-01-20T21:22:44.905Z,75.01
2023-01-20T21:25:12.280Z,74.27
2023-01-20T21:27:38.870Z,74.26
2023-01-20T21:30:06.082Z,73.67
2023-01-20T21:32:33.026Z,73.49
2023-01-20T21:35:02.028Z,73.88
2023-01-20T21:37:28.732Z,74.78
2023-01-20T21:39:55.334Z,74.38
2023-01-20T21:42:21.987Z,73.19
2023-01-20T21:44:48.542Z,72.91
2023-01-20T21:47:15.064Z,73.12
2023-01-20T21:50:00.145Z,72.99
2023-01-20T21:52:42.007Z,73.16
2023-01-20T21:55:18.843Z,74.93
2023-01-20T21:57:51.222Z,75.87
2023-01-20T22:00:18.654Z,75.07
2023-01-20T22:02:45.561Z,74.12
2023-01-20T22:05:13.002Z,75.35
2023-01-20T22:07:39.630Z,75.65
2023-01-20T22:10:07.652Z,74.77
2023-01-20T22:12:35.530Z,74.75
2023-01-20T22:15:03.439Z,74.52
2023-01-20T22:17:30.782Z,74.14
2023-01-20T22:19:57.577Z,74.05
2023-01-20T22:22:24.081Z,75.30
2023-01-20T22:24:50.758Z,76.20
2023-01-20T22:27:17.292Z,75.20
2023-01-20T22:29:43.827Z,74.78
2023-01-20T22:32:10.483Z,74.66
2023-01-20T22:34:37.104Z,74.38
2023-01-20T22:37:04.428Z,74.56
2023-01-20T22:39:33.412Z,74.68
2023-01-20T22:42:00.053Z,75.05
2023-01-20T22:44:26.656Z,75.58
2023-01-20T22:46:53.179Z,75.53
2023-01-20T22:49:20.195Z,76.01
2023-01-20T22:51:46.840Z,75.28
2023-01-20T22:54:13.453Z,74.56
2023-01-20T22:56:40.065Z,74.47
2023-01-20T22:59:06.694Z,75.16
2023-01-20T23:01:37.327Z,74.64
2023-01-20T23:04:06.241Z,75.14
2023-01-20T23:06:35.697Z,75.48
2023-01-20T23:09:11.995Z,74.70
2023-01-20T23:11:40.083Z,74.79
2023-01-20T23:14:07.334Z,75.03
2023-01-20T23:16:33.898Z,75.86
2023-01-20T23:19:00.479Z,74.78
2023-01-20T23:21:27.082Z,74.56
2023-01-20T23:23:56.231Z,75.04
2023-01-20T23:26:25.422Z,75.30
2023-01-20T23:28:53.675Z,75.57
2023-01-20T23:31:21.828Z,74.15
2023-01-20T23:33:48.635Z,73.45
2023-01-20T23:36:23.742Z,73.63
2023-01-20T23:38:50.285Z,75.54
2023-01-20T23:41:17.037Z,75.43
2023-01-20T23:43:43.640Z,75.36
2023-01-20T23:46:10.562Z,74.80
2023-01-20T23:48:37.995Z,74.07
2023-01-20T23:51:06.337Z,74.14
2023-01-20T23:53:36.581Z,75.18
2023-01-20T23:56:05.546Z,74.86
2023-01-20T23:58:32.134Z,74.91
